Aviation Digital Data Service (ADDS)

Output produced by METARs form (1528 UTC 19 January 2019)
found at http://www.aviationweather.gov/metar/data/
 
METAR text: VRMM 191500Z 06008KT 5000 HZ FEW019 BKN270 27/21 Q1013 NOSIG
Conditions at: VRMM (MALE INTL/HULULE, MV) observed 1500 UTC 19 January 2019
Temperature: 27.0°C (81°F)
Dewpoint: 21.0°C (70°F) [RH = 70%]
Pressure (altimeter): 29.91 inches Hg (1013.0 mb)
Winds: from the ENE (60 degrees) at 9 MPH (8 knots; 4.1 m/s)
Visibility: 3 miles ( 5 km)
Ceiling: 27000 feet AGL
Clouds: few clouds at 1900 feet AGL
broken clouds at 27000 feet AGL
Weather: HZ  (haze)

METAR text: VRMM 191400Z 06008KT 5000 HZ FEW019 BKN270 28/21 Q1012 NOSIG
Conditions at: VRMM (MALE INTL/HULULE, MV) observed 1400 UTC 19 January 2019
Temperature: 28.0°C (82°F)
Dewpoint: 21.0°C (70°F) [RH = 66%]
Pressure (altimeter): 29.88 inches Hg (1012.0 mb)
Winds: from the ENE (60 degrees) at 9 MPH (8 knots; 4.1 m/s)
Visibility: 3 miles ( 5 km)
Ceiling: 27000 feet AGL
Clouds: few clouds at 1900 feet AGL
broken clouds at 27000 feet AGL
Weather: HZ  (haze)

METAR text: VRMM 191300Z 06011KT 5000 HZ FEW019 BKN270 28/21 Q1011 NOSIG
Conditions at: VRMM (MALE INTL/HULULE, MV) observed 1300 UTC 19 January 2019
Temperature: 28.0°C (82°F)
Dewpoint: 21.0°C (70°F) [RH = 66%]
Pressure (altimeter): 29.85 inches Hg (1011.0 mb)
Winds: from the ENE (60 degrees) at 13 MPH (11 knots; 5.7 m/s)
Visibility: 3 miles ( 5 km)
Ceiling: 27000 feet AGL
Clouds: few clouds at 1900 feet AGL
broken clouds at 27000 feet AGL
Weather: HZ  (haze)

METAR text: VRMM 191200Z 07013KT 5000 HZ FEW018 BKN280 29/21 Q1010 NOSIG
Conditions at: VRMM (MALE INTL/HULULE, MV) observed 1200 UTC 19 January 2019
Temperature: 29.0°C (84°F)
Dewpoint: 21.0°C (70°F) [RH = 62%]
Pressure (altimeter): 29.82 inches Hg (1010.0 mb)
Winds: from the ENE (70 degrees) at 15 MPH (13 knots; 6.7 m/s)
Visibility: 3 miles ( 5 km)
Ceiling: 28000 feet AGL
Clouds: few clouds at 1800 feet AGL
broken clouds at 28000 feet AGL
Weather: HZ  (haze)

METAR text: VRMM 191100Z 06013KT 5000 HZ FEW018 BKN280 30/21 Q1010 NOSIG
Conditions at: VRMM (MALE INTL/HULULE, MV) observed 1100 UTC 19 January 2019
Temperature: 30.0°C (86°F)
Dewpoint: 21.0°C (70°F) [RH = 59%]
Pressure (altimeter): 29.82 inches Hg (1010.0 mb)
Winds: from the ENE (60 degrees) at 15 MPH (13 knots; 6.7 m/s)
Visibility: 3 miles ( 5 km)
Ceiling: 28000 feet AGL
Clouds: few clouds at 1800 feet AGL
broken clouds at 28000 feet AGL
Weather: HZ  (haze)

METAR text: VRMM 191000Z 06013KT 5000 HZ FEW018 BKN280 30/21 Q1010 NOSIG
Conditions at: VRMM (MALE INTL/HULULE, MV) observed 1000 UTC 19 January 2019
Temperature: 30.0°C (86°F)
Dewpoint: 21.0°C (70°F) [RH = 59%]
Pressure (altimeter): 29.82 inches Hg (1010.0 mb)
Winds: from the ENE (60 degrees) at 15 MPH (13 knots; 6.7 m/s)
Visibility: 3 miles ( 5 km)
Ceiling: 28000 feet AGL
Clouds: few clouds at 1800 feet AGL
broken clouds at 28000 feet AGL
Weather: HZ  (haze)

METAR text: VRMM 190900Z 06013KT 5000 HZ FEW018 BKN280 30/22 Q1011 NOSIG
Conditions at: VRMM (MALE INTL/HULULE, MV) observed 0900 UTC 19 January 2019
Temperature: 30.0°C (86°F)
Dewpoint: 22.0°C (72°F) [RH = 62%]
Pressure (altimeter): 29.85 inches Hg (1011.0 mb)
Winds: from the ENE (60 degrees) at 15 MPH (13 knots; 6.7 m/s)
Visibility: 3 miles ( 5 km)
Ceiling: 28000 feet AGL
Clouds: few clouds at 1800 feet AGL
broken clouds at 28000 feet AGL
Weather: HZ  (haze)

METAR text: VRMM 190800Z 06013KT 5000 HZ FEW018 BKN280 30/22 Q1012 NOSIG
Conditions at: VRMM (MALE INTL/HULULE, MV) observed 0800 UTC 19 January 2019
Temperature: 30.0°C (86°F)
Dewpoint: 22.0°C (72°F) [RH = 62%]
Pressure (altimeter): 29.88 inches Hg (1012.0 mb)
Winds: from the ENE (60 degrees) at 15 MPH (13 knots; 6.7 m/s)
Visibility: 3 miles ( 5 km)
Ceiling: 28000 feet AGL
Clouds: few clouds at 1800 feet AGL
broken clouds at 28000 feet AGL
Weather: HZ  (haze)

METAR text: VRMM 190700Z 06013KT 5000 HZ FEW019 BKN280 30/22 Q1013 NOSIG
Conditions at: VRMM (MALE INTL/HULULE, MV) observed 0700 UTC 19 January 2019
Temperature: 30.0°C (86°F)
Dewpoint: 22.0°C (72°F) [RH = 62%]
Pressure (altimeter): 29.91 inches Hg (1013.0 mb)
Winds: from the ENE (60 degrees) at 15 MPH (13 knots; 6.7 m/s)
Visibility: 3 miles ( 5 km)
Ceiling: 28000 feet AGL
Clouds: few clouds at 1900 feet AGL
broken clouds at 28000 feet AGL
Weather: HZ  (haze)

METAR text: VRMM 190600Z 06013KT 5000 HZ FEW019 BKN280 30/22 Q1014 NOSIG
Conditions at: VRMM (MALE INTL/HULULE, MV) observed 0600 UTC 19 January 2019
Temperature: 30.0°C (86°F)
Dewpoint: 22.0°C (72°F) [RH = 62%]
Pressure (altimeter): 29.94 inches Hg (1014.0 mb)
Winds: from the ENE (60 degrees) at 15 MPH (13 knots; 6.7 m/s)
Visibility: 3 miles ( 5 km)
Ceiling: 28000 feet AGL
Clouds: few clouds at 1900 feet AGL
broken clouds at 28000 feet AGL
Weather: HZ  (haze)

METAR text: VRMM 190500Z 06012KT 5000 HZ FEW019 SCT280 29/21 Q1014 NOSIG
Conditions at: VRMM (MALE INTL/HULULE, MV) observed 0500 UTC 19 January 2019
Temperature: 29.0°C (84°F)
Dewpoint: 21.0°C (70°F) [RH = 62%]
Pressure (altimeter): 29.94 inches Hg (1014.0 mb)
Winds: from the ENE (60 degrees) at 14 MPH (12 knots; 6.2 m/s)
Visibility: 3 miles ( 5 km)
Ceiling: at least 12,000 feet AGL
Clouds: few clouds at 1900 feet AGL
scattered clouds at 28000 feet AGL
Weather: HZ  (haze)

METAR text: VRMM 190400Z 06011KT 5000 HZ FEW019 SCT280 29/23 Q1014 NOSIG
Conditions at: VRMM (MALE INTL/HULULE, MV) observed 0400 UTC 19 January 2019
Temperature: 29.0°C (84°F)
Dewpoint: 23.0°C (73°F) [RH = 70%]
Pressure (altimeter): 29.94 inches Hg (1014.0 mb)
Winds: from the ENE (60 degrees) at 13 MPH (11 knots; 5.7 m/s)
Visibility: 3 miles ( 5 km)
Ceiling: at least 12,000 feet AGL
Clouds: few clouds at 1900 feet AGL
scattered clouds at 28000 feet AGL
Weather: HZ  (haze)

METAR text: VRMM 190300Z 04009KT 5000 HZ FEW018 28/21 Q1013 NOSIG
Conditions at: VRMM (MALE INTL/HULULE, MV) observed 0300 UTC 19 January 2019
Temperature: 28.0°C (82°F)
Dewpoint: 21.0°C (70°F) [RH = 66%]
Pressure (altimeter): 29.91 inches Hg (1013.0 mb)
Winds: from the NE (40 degrees) at 10 MPH (9 knots; 4.6 m/s)
Visibility: 3 miles ( 5 km)
Ceiling: at least 12,000 feet AGL
Clouds: few clouds at 1800 feet AGL
Weather: HZ  (haze)

METAR text: VRMM 190200Z 04008KT 5000 HZ FEW018 27/20 Q1012 NOSIG
Conditions at: VRMM (MALE INTL/HULULE, MV) observed 0200 UTC 19 January 2019
Temperature: 27.0°C (81°F)
Dewpoint: 20.0°C (68°F) [RH = 66%]
Pressure (altimeter): 29.88 inches Hg (1012.0 mb)
Winds: from the NE (40 degrees) at 9 MPH (8 knots; 4.1 m/s)
Visibility: 3 miles ( 5 km)
Ceiling: at least 12,000 feet AGL
Clouds: few clouds at 1800 feet AGL
Weather: HZ  (haze)

METAR text: VRMM 190100Z 04008KT 5000 HZ FEW018 27/20 Q1011 NOSIG
Conditions at: VRMM (MALE INTL/HULULE, MV) observed 0100 UTC 19 January 2019
Temperature: 27.0°C (81°F)
Dewpoint: 20.0°C (68°F) [RH = 66%]
Pressure (altimeter): 29.85 inches Hg (1011.0 mb)
Winds: from the NE (40 degrees) at 9 MPH (8 knots; 4.1 m/s)
Visibility: 3 miles ( 5 km)
Ceiling: at least 12,000 feet AGL
Clouds: few clouds at 1800 feet AGL
Weather: HZ  (haze)

METAR text: VRMM 190000Z 04008KT 5000 HZ FEW018 SCT280 26/21 Q1011 NOSIG
Conditions at: VRMM (MALE INTL/HULULE, MV) observed 0000 UTC 19 January 2019
Temperature: 26.0°C (79°F)
Dewpoint: 21.0°C (70°F) [RH = 74%]
Pressure (altimeter): 29.85 inches Hg (1011.0 mb)
Winds: from the NE (40 degrees) at 9 MPH (8 knots; 4.1 m/s)
Visibility: 3 miles ( 5 km)
Ceiling: at least 12,000 feet AGL
Clouds: few clouds at 1800 feet AGL
scattered clouds at 28000 feet AGL
Weather: HZ  (haze)

METAR text: VRMM 182300Z 04006KT 5000 HZ FEW018 SCT280 26/21 Q1011 NOSIG
Conditions at: VRMM (MALE INTL/HULULE, MV) observed 2300 UTC 18 January 2019
Temperature: 26.0°C (79°F)
Dewpoint: 21.0°C (70°F) [RH = 74%]
Pressure (altimeter): 29.85 inches Hg (1011.0 mb)
Winds: from the NE (40 degrees) at 7 MPH (6 knots; 3.1 m/s)
Visibility: 3 miles ( 5 km)
Ceiling: at least 12,000 feet AGL
Clouds: few clouds at 1800 feet AGL
scattered clouds at 28000 feet AGL
Weather: HZ  (haze)

METAR text: VRMM 182200Z 05006KT 5000 HZ FEW018 SCT280 27/21 Q1011 NOSIG
Conditions at: VRMM (MALE INTL/HULULE, MV) observed 2200 UTC 18 January 2019
Temperature: 27.0°C (81°F)
Dewpoint: 21.0°C (70°F) [RH = 70%]
Pressure (altimeter): 29.85 inches Hg (1011.0 mb)
Winds: from the NE (50 degrees) at 7 MPH (6 knots; 3.1 m/s)
Visibility: 3 miles ( 5 km)
Ceiling: at least 12,000 feet AGL
Clouds: few clouds at 1800 feet AGL
scattered clouds at 28000 feet AGL
Weather: HZ  (haze)

METAR text: VRMM 182100Z 04006KT 5000 HZ FEW018 SCT280 27/21 Q1012 NOSIG
Conditions at: VRMM (MALE INTL/HULULE, MV) observed 2100 UTC 18 January 2019
Temperature: 27.0°C (81°F)
Dewpoint: 21.0°C (70°F) [RH = 70%]
Pressure (altimeter): 29.88 inches Hg (1012.0 mb)
Winds: from the NE (40 degrees) at 7 MPH (6 knots; 3.1 m/s)
Visibility: 3 miles ( 5 km)
Ceiling: at least 12,000 feet AGL
Clouds: few clouds at 1800 feet AGL
scattered clouds at 28000 feet AGL
Weather: HZ  (haze)

METAR text: VRMM 182000Z 06007KT 5000 HZ FEW018 BKN280 27/23 Q1012 NOSIG
Conditions at: VRMM (MALE INTL/HULULE, MV) observed 2000 UTC 18 January 2019
Temperature: 27.0°C (81°F)
Dewpoint: 23.0°C (73°F) [RH = 79%]
Pressure (altimeter): 29.88 inches Hg (1012.0 mb)
Winds: from the ENE (60 degrees) at 8 MPH (7 knots; 3.6 m/s)
Visibility: 3 miles ( 5 km)
Ceiling: 28000 feet AGL
Clouds: few clouds at 1800 feet AGL
broken clouds at 28000 feet AGL
Weather: HZ  (haze)

METAR text: VRMM 181900Z 07008KT 5000 HZ FEW018 BKN280 27/22 Q1013 NOSIG
Conditions at: VRMM (MALE INTL/HULULE, MV) observed 1900 UTC 18 January 2019
Temperature: 27.0°C (81°F)
Dewpoint: 22.0°C (72°F) [RH = 74%]
Pressure (altimeter): 29.91 inches Hg (1013.0 mb)
Winds: from the ENE (70 degrees) at 9 MPH (8 knots; 4.1 m/s)
Visibility: 3 miles ( 5 km)
Ceiling: 28000 feet AGL
Clouds: few clouds at 1800 feet AGL
broken clouds at 28000 feet AGL
Weather: HZ  (haze)

METAR text: VRMM 181800Z 07009KT 5000 HZ FEW018 SCT280 28/22 Q1013 NOSIG
Conditions at: VRMM (MALE INTL/HULULE, MV) observed 1800 UTC 18 January 2019
Temperature: 28.0°C (82°F)
Dewpoint: 22.0°C (72°F) [RH = 70%]
Pressure (altimeter): 29.91 inches Hg (1013.0 mb)
Winds: from the ENE (70 degrees) at 10 MPH (9 knots; 4.6 m/s)
Visibility: 3 miles ( 5 km)
Ceiling: at least 12,000 feet AGL
Clouds: few clouds at 1800 feet AGL
scattered clouds at 28000 feet AGL
Weather: HZ  (haze)

METAR text: VRMM 181700Z 07008KT 5000 HZ FEW018 BKN280 28/22 Q1013 NOSIG
Conditions at: VRMM (MALE INTL/HULULE, MV) observed 1700 UTC 18 January 2019
Temperature: 28.0°C (82°F)
Dewpoint: 22.0°C (72°F) [RH = 70%]
Pressure (altimeter): 29.91 inches Hg (1013.0 mb)
Winds: from the ENE (70 degrees) at 9 MPH (8 knots; 4.1 m/s)
Visibility: 3 miles ( 5 km)
Ceiling: 28000 feet AGL
Clouds: few clouds at 1800 feet AGL
broken clouds at 28000 feet AGL
Weather: HZ  (haze)

METAR text: VRMM 181600Z 06008KT 5000 HZ FEW018 BKN280 28/22 Q1012 NOSIG
Conditions at: VRMM (MALE INTL/HULULE, MV) observed 1600 UTC 18 January 2019
Temperature: 28.0°C (82°F)
Dewpoint: 22.0°C (72°F) [RH = 70%]
Pressure (altimeter): 29.88 inches Hg (1012.0 mb)
Winds: from the ENE (60 degrees) at 9 MPH (8 knots; 4.1 m/s)
Visibility: 3 miles ( 5 km)
Ceiling: 28000 feet AGL
Clouds: few clouds at 1800 feet AGL
broken clouds at 28000 feet AGL
Weather: HZ  (haze)

METAR text: VRMM 181500Z 06008KT 5000 HZ FEW018 BKN280 28/22 Q1012 NOSIG
Conditions at: VRMM (MALE INTL/HULULE, MV) observed 1500 UTC 18 January 2019
Temperature: 28.0°C (82°F)
Dewpoint: 22.0°C (72°F) [RH = 70%]
Pressure (altimeter): 29.88 inches Hg (1012.0 mb)
Winds: from the ENE (60 degrees) at 9 MPH (8 knots; 4.1 m/s)
Visibility: 3 miles ( 5 km)
Ceiling: 28000 feet AGL
Clouds: few clouds at 1800 feet AGL
broken clouds at 28000 feet AGL
Weather: HZ  (haze)

METAR text: VRMM 181400Z 06010KT 5000 HZ FEW018 BKN280 28/21 Q1011 NOSIG
Conditions at: VRMM (MALE INTL/HULULE, MV) observed 1400 UTC 18 January 2019
Temperature: 28.0°C (82°F)
Dewpoint: 21.0°C (70°F) [RH = 66%]
Pressure (altimeter): 29.85 inches Hg (1011.0 mb)
Winds: from the ENE (60 degrees) at 12 MPH (10 knots; 5.1 m/s)
Visibility: 3 miles ( 5 km)
Ceiling: 28000 feet AGL
Clouds: few clouds at 1800 feet AGL
broken clouds at 28000 feet AGL
Weather: HZ  (haze)

METAR text: VRMM 181300Z 06009KT 5000 HZ FEW018 BKN270 28/22 Q1010 NOSIG
Conditions at: VRMM (MALE INTL/HULULE, MV) observed 1300 UTC 18 January 2019
Temperature: 28.0°C (82°F)
Dewpoint: 22.0°C (72°F) [RH = 70%]
Pressure (altimeter): 29.82 inches Hg (1010.0 mb)
Winds: from the ENE (60 degrees) at 10 MPH (9 knots; 4.6 m/s)
Visibility: 3 miles ( 5 km)
Ceiling: 27000 feet AGL
Clouds: few clouds at 1800 feet AGL
broken clouds at 27000 feet AGL
Weather: HZ  (haze)

METAR text: VRMM 181200Z 06010KT 5000 HZ FEW018 BKN270 29/22 Q1010 NOSIG
Conditions at: VRMM (MALE INTL/HULULE, MV) observed 1200 UTC 18 January 2019
Temperature: 29.0°C (84°F)
Dewpoint: 22.0°C (72°F) [RH = 66%]
Pressure (altimeter): 29.82 inches Hg (1010.0 mb)
Winds: from the ENE (60 degrees) at 12 MPH (10 knots; 5.1 m/s)
Visibility: 3 miles ( 5 km)
Ceiling: 27000 feet AGL
Clouds: few clouds at 1800 feet AGL
broken clouds at 27000 feet AGL
Weather: HZ  (haze)

METAR text: VRMM 181100Z 06012KT 5000 HZ FEW018 BKN270 30/22 Q1010 NOSIG
Conditions at: VRMM (MALE INTL/HULULE, MV) observed 1100 UTC 18 January 2019
Temperature: 30.0°C (86°F)
Dewpoint: 22.0°C (72°F) [RH = 62%]
Pressure (altimeter): 29.82 inches Hg (1010.0 mb)
Winds: from the ENE (60 degrees) at 14 MPH (12 knots; 6.2 m/s)
Visibility: 3 miles ( 5 km)
Ceiling: 27000 feet AGL
Clouds: few clouds at 1800 feet AGL
broken clouds at 27000 feet AGL
Weather: HZ  (haze)

METAR text: VRMM 181000Z 06012KT 5000 HZ FEW018 BKN270 30/22 Q1010 NOSIG
Conditions at: VRMM (MALE INTL/HULULE, MV) observed 1000 UTC 18 January 2019
Temperature: 30.0°C (86°F)
Dewpoint: 22.0°C (72°F) [RH = 62%]
Pressure (altimeter): 29.82 inches Hg (1010.0 mb)
Winds: from the ENE (60 degrees) at 14 MPH (12 knots; 6.2 m/s)
Visibility: 3 miles ( 5 km)
Ceiling: 27000 feet AGL
Clouds: few clouds at 1800 feet AGL
broken clouds at 27000 feet AGL
Weather: HZ  (haze)

METAR text: VRMM 180900Z 06014KT 5000 HZ FEW018 BKN270 30/22 Q1010 NOSIG
Conditions at: VRMM (MALE INTL/HULULE, MV) observed 0900 UTC 18 January 2019
Temperature: 30.0°C (86°F)
Dewpoint: 22.0°C (72°F) [RH = 62%]
Pressure (altimeter): 29.82 inches Hg (1010.0 mb)
Winds: from the ENE (60 degrees) at 16 MPH (14 knots; 7.2 m/s)
Visibility: 3 miles ( 5 km)
Ceiling: 27000 feet AGL
Clouds: few clouds at 1800 feet AGL
broken clouds at 27000 feet AGL
Weather: HZ  (haze)

METAR text: VRMM 180800Z 06013KT 5000 HZ FEW018 BKN270 31/22 Q1011 NOSIG
Conditions at: VRMM (MALE INTL/HULULE, MV) observed 0800 UTC 18 January 2019
Temperature: 31.0°C (88°F)
Dewpoint: 22.0°C (72°F) [RH = 59%]
Pressure (altimeter): 29.85 inches Hg (1011.0 mb)
Winds: from the ENE (60 degrees) at 15 MPH (13 knots; 6.7 m/s)
Visibility: 3 miles ( 5 km)
Ceiling: 27000 feet AGL
Clouds: few clouds at 1800 feet AGL
broken clouds at 27000 feet AGL
Weather: HZ  (haze)

METAR text: VRMM 180700Z 06012KT 5000 FEW018 BKN270 30/23 Q1012 NOSIG
Conditions at: VRMM (MALE INTL/HULULE, MV) observed 0700 UTC 18 January 2019
Temperature: 30.0°C (86°F)
Dewpoint: 23.0°C (73°F) [RH = 66%]
Pressure (altimeter): 29.88 inches Hg (1012.0 mb)
Winds: from the ENE (60 degrees) at 14 MPH (12 knots; 6.2 m/s)
Visibility: 3 miles ( 5 km)
Ceiling: 27000 feet AGL
Clouds: few clouds at 1800 feet AGL
broken clouds at 27000 feet AGL
Weather: no significant weather observed at this time

METAR text: VRMM 180600Z 06012KT 5000 SCT018 BKN270 30/23 Q1013 NOSIG
Conditions at: VRMM (MALE INTL/HULULE, MV) observed 0600 UTC 18 January 2019
Temperature: 30.0°C (86°F)
Dewpoint: 23.0°C (73°F) [RH = 66%]
Pressure (altimeter): 29.91 inches Hg (1013.0 mb)
Winds: from the ENE (60 degrees) at 14 MPH (12 knots; 6.2 m/s)
Visibility: 3 miles ( 5 km)
Ceiling: 27000 feet AGL
Clouds: scattered clouds at 1800 feet AGL
broken clouds at 27000 feet AGL
Weather: no significant weather observed at this time

METAR text: VRMM 180500Z 07011KT 5000 HZ SCT018 BKN270 28/23 Q1013 NOSIG
Conditions at: VRMM (MALE INTL/HULULE, MV) observed 0500 UTC 18 January 2019
Temperature: 28.0°C (82°F)
Dewpoint: 23.0°C (73°F) [RH = 74%]
Pressure (altimeter): 29.91 inches Hg (1013.0 mb)
Winds: from the ENE (70 degrees) at 13 MPH (11 knots; 5.7 m/s)
Visibility: 3 miles ( 5 km)
Ceiling: 27000 feet AGL
Clouds: scattered clouds at 1800 feet AGL
broken clouds at 27000 feet AGL
Weather: HZ  (haze)

Forecast for: VRMM (MALE INTL/HULULE, MV)
Text: TAF VRMM 191100Z 1912/2018 06013KT 5000 HZ FEW018
Forecast period: 1200 UTC 19 January 2019 to 1800 UTC 20 January 2019
Forecast type: FROM: standard forecast or significant change
Winds: from the ENE (60 degrees) at 15 MPH (13 knots; 6.7 m/s)
Visibility: 3 miles (5 km)
Ceiling: at least 12,000 feet AGL
Clouds: few clouds at 1800 feet AGL
Weather: HZ  (haze)
Text: TEMPO 1912/1918 FEW019CB
Forecast period: 1200 to 1800 UTC 19 January 2019
Forecast type: TEMPORARY: The following changes expected for less than half the time period
Visibility: missing
Ceiling: at least 12,000 feet AGL
Clouds: few clouds at 1900 feet AGL
Weather: no significant weather forecast for this period